Buford, Colorado
Current Conditions -  °F | °C
As of 6:53 PM on Friday 28 Nov 2014 (Local Time) from KEEO Reporting Station
Clear Clear  
Wind Chill: 40°   Ceiling: Unl
Heat Index: 45°   Visibility: 10mi
Dew Point: 18°   Wind: 9mph
Humidity: 34%   Direction: 260°W
Pressure: 29.98"   Gusts: NA
Location:  40.0347°N, 107.628°W
Report Text: KEEO 290153Z AUTO 26008KT 10SM CLR 07/M08 A2998 RMK AO2 SLP143 T00721078
Loading
Personal Weather Stations






























Interactive Weather Map New forecast layout! Learn more

10-Day Weather Forecast

Advertisements
Track Severe Weather on mobile